sensor_id;sensor_type;location;lat;lon;timestamp;P1;durP1;ratioP1;P2;durP2;ratioP2
22863;SDS011;11599;49.882;8.680;2023-03-01T00:47:50;17.40;;;7.80;;
22863;SDS011;11599;49.882;8.680;2023-03-01T00:59:01;17.13;;;7.10;;
22863;SDS011;11599;49.882;8.680;2023-03-01T01:10:00;23.43;;;8.20;;
22863;SDS011;11599;49.882;8.680;2023-03-01T01:20:52;18.97;;;8.43;;
22863;SDS011;11599;49.882;8.680;2023-03-01T01:31:51;19.30;;;7.83;;
22863;SDS011;11599;49.882;8.680;2023-03-01T01:42:27;19.33;;;7.43;;
22863;SDS011;11599;49.882;8.680;2023-03-01T02:04:24;19.27;;;8.20;;
22863;SDS011;11599;49.882;8.680;2023-03-01T02:15:05;18.50;;;8.00;;
22863;SDS011;11599;49.882;8.680;2023-03-01T02:26:04;19.60;;;8.30;;
22863;SDS011;11599;49.882;8.680;2023-03-01T02:36:48;21.00;;;8.43;;
22863;SDS011;11599;49.882;8.680;2023-03-01T02:47:14;21.97;;;8.77;;
22863;SDS011;11599;49.882;8.680;2023-03-01T02:57:47;19.57;;;8.80;;
22863;SDS011;11599;49.882;8.680;2023-03-01T03:08:16;20.43;;;8.33;;
22863;SDS011;11599;49.882;8.680;2023-03-01T03:18:49;22.40;;;8.57;;
22863;SDS011;11599;49.882;8.680;2023-03-01T03:29:15;18.53;;;8.47;;
22863;SDS011;11599;49.882;8.680;2023-03-01T03:39:40;25.83;;;8.53;;
22863;SDS011;11599;49.882;8.680;2023-03-01T03:50:12;23.27;;;8.53;;
22863;SDS011;11599;49.882;8.680;2023-03-01T04:00:38;22.57;;;9.23;;
22863;SDS011;11599;49.882;8.680;2023-03-01T04:11:04;21.80;;;9.17;;
22863;SDS011;11599;49.882;8.680;2023-03-01T04:21:41;23.30;;;9.40;;
22863;SDS011;11599;49.882;8.680;2023-03-01T04:32:07;21.53;;;9.50;;
22863;SDS011;11599;49.882;8.680;2023-03-01T04:42:44;25.07;;;9.97;;
22863;SDS011;11599;49.882;8.680;2023-03-01T04:53:10;20.90;;;9.60;;
22863;SDS011;11599;49.882;8.680;2023-03-01T05:03:40;21.17;;;9.47;;
22863;SDS011;11599;49.882;8.680;2023-03-01T05:14:16;29.27;;;10.43;;
22863;SDS011;11599;49.882;8.680;2023-03-01T05:24:40;28.60;;;10.40;;
22863;SDS011;11599;49.882;8.680;2023-03-01T05:35:02;26.60;;;10.07;;
22863;SDS011;11599;49.882;8.680;2023-03-01T05:45:26;26.67;;;10.10;;
22863;SDS011;11599;49.882;8.680;2023-03-01T05:55:47;22.37;;;9.50;;
22863;SDS011;11599;49.882;8.680;2023-03-01T06:06:11;27.27;;;10.43;;
22863;SDS011;11599;49.882;8.680;2023-03-01T06:16:32;22.50;;;9.50;;
22863;SDS011;11599;49.882;8.680;2023-03-01T06:26:56;24.97;;;10.57;;
22863;SDS011;11599;49.882;8.680;2023-03-01T06:37:17;27.43;;;10.30;;
22863;SDS011;11599;49.882;8.680;2023-03-01T06:47:40;25.33;;;9.83;;
22863;SDS011;11599;49.882;8.680;2023-03-01T06:58:02;30.83;;;10.63;;
22863;SDS011;11599;49.882;8.680;2023-03-01T07:08:25;24.33;;;10.23;;
22863;SDS011;11599;49.882;8.680;2023-03-01T07:18:46;26.23;;;10.13;;
22863;SDS011;11599;49.882;8.680;2023-03-01T07:29:10;24.20;;;9.90;;
22863;SDS011;11599;49.882;8.680;2023-03-01T07:39:32;24.10;;;10.07;;
22863;SDS011;11599;49.882;8.680;2023-03-01T07:49:55;20.50;;;9.73;;
22863;SDS011;11599;49.882;8.680;2023-03-01T08:00:16;20.73;;;9.90;;
22863;SDS011;11599;49.882;8.680;2023-03-01T08:10:39;28.27;;;10.30;;
22863;SDS011;11599;49.882;8.680;2023-03-01T08:21:01;19.40;;;8.90;;
22863;SDS011;11599;49.882;8.680;2023-03-01T08:31:24;23.57;;;10.47;;
22863;SDS011;11599;49.882;8.680;2023-03-01T08:41:46;20.63;;;9.87;;
22863;SDS011;11599;49.882;8.680;2023-03-01T08:52:09;23.00;;;9.93;;
22863;SDS011;11599;49.882;8.680;2023-03-01T09:02:30;24.93;;;10.13;;
22863;SDS011;11599;49.882;8.680;2023-03-01T09:12:53;19.60;;;9.90;;
22863;SDS011;11599;49.882;8.680;2023-03-01T09:23:15;20.83;;;10.23;;
22863;SDS011;11599;49.882;8.680;2023-03-01T09:33:38;19.70;;;10.50;;
22863;SDS011;11599;49.882;8.680;2023-03-01T09:44:00;23.90;;;10.00;;
22863;SDS011;11599;49.882;8.680;2023-03-01T10:04:44;19.53;;;9.93;;
22863;SDS011;11599;49.882;8.680;2023-03-01T10:15:09;16.67;;;10.38;;
22863;SDS011;11599;49.882;8.680;2023-03-01T10:25:40;16.52;;;10.68;;
22863;SDS011;11599;49.882;8.680;2023-03-01T10:36:04;16.40;;;10.00;;
22863;SDS011;11599;49.882;8.680;2023-03-01T10:46:27;20.00;;;10.90;;
22863;SDS011;11599;49.882;8.680;2023-03-01T10:56:53;14.52;;;10.20;;
22863;SDS011;11599;49.882;8.680;2023-03-01T11:40:40;16.35;;;8.75;;
22863;SDS011;11599;49.882;8.680;2023-03-01T12:14:12;13.05;;;8.57;;
22863;SDS011;11599;49.882;8.680;2023-03-01T12:24:58;14.43;;;8.90;;
22863;SDS011;11599;49.882;8.680;2023-03-01T12:35:36;13.50;;;8.35;;
22863;SDS011;11599;49.882;8.680;2023-03-01T12:46:04;10.85;;;7.70;;
22863;SDS011;11599;49.882;8.680;2023-03-01T12:56:34;11.20;;;7.25;;
22863;SDS011;11599;49.882;8.680;2023-03-01T13:07:09;11.55;;;7.05;;
22863;SDS011;11599;49.882;8.680;2023-03-01T13:28:45;15.32;;;7.32;;
22863;SDS011;11599;49.882;8.680;2023-03-01T13:50:24;14.20;;;7.55;;
22863;SDS011;11599;49.882;8.680;2023-03-01T14:00:46;10.02;;;6.78;;
22863;SDS011;11599;49.882;8.680;2023-03-01T14:22:04;10.32;;;6.55;;
22863;SDS011;11599;49.882;8.680;2023-03-01T14:32:48;9.55;;;6.57;;
22863;SDS011;11599;49.882;8.680;2023-03-01T14:43:28;12.02;;;7.00;;
22863;SDS011;11599;49.882;8.680;2023-03-01T14:53:51;10.05;;;6.50;;
22863;SDS011;11599;49.882;8.680;2023-03-01T15:04:16;11.02;;;7.28;;
22863;SDS011;11599;49.882;8.680;2023-03-01T15:14:40;13.02;;;7.60;;
22863;SDS011;11599;49.882;8.680;2023-03-01T15:25:04;13.60;;;7.88;;
22863;SDS011;11599;49.882;8.680;2023-03-01T15:35:33;12.00;;;7.07;;
22863;SDS011;11599;49.882;8.680;2023-03-01T15:45:58;13.70;;;7.03;;
22863;SDS011;11599;49.882;8.680;2023-03-01T15:56:20;12.23;;;7.45;;
22863;SDS011;11599;49.882;8.680;2023-03-01T16:06:43;11.02;;;6.68;;
22863;SDS011;11599;49.882;8.680;2023-03-01T16:17:04;12.80;;;7.22;;
22863;SDS011;11599;49.882;8.680;2023-03-01T16:27:29;14.90;;;8.00;;
22863;SDS011;11599;49.882;8.680;2023-03-01T16:37:50;14.70;;;8.23;;
22863;SDS011;11599;49.882;8.680;2023-03-01T16:48:15;15.13;;;8.23;;
22863;SDS011;11599;49.882;8.680;2023-03-01T16:58:37;17.83;;;9.23;;
22863;SDS011;11599;49.882;8.680;2023-03-01T17:09:00;15.33;;;8.50;;
22863;SDS011;11599;49.882;8.680;2023-03-01T17:19:21;19.17;;;8.73;;
22863;SDS011;11599;49.882;8.680;2023-03-01T17:29:44;19.43;;;9.33;;
22863;SDS011;11599;49.882;8.680;2023-03-01T17:40:06;17.73;;;8.77;;
22863;SDS011;11599;49.882;8.680;2023-03-01T17:50:29;16.93;;;8.63;;
22863;SDS011;11599;49.882;8.680;2023-03-01T18:00:51;18.00;;;9.30;;
22863;SDS011;11599;49.882;8.680;2023-03-01T18:11:14;20.73;;;9.80;;
22863;SDS011;11599;49.882;8.680;2023-03-01T18:21:35;21.90;;;9.27;;
22863;SDS011;11599;49.882;8.680;2023-03-01T18:31:58;20.23;;;9.33;;
22863;SDS011;11599;49.882;8.680;2023-03-01T18:42:19;18.83;;;8.70;;
22863;SDS011;11599;49.882;8.680;2023-03-01T18:52:43;19.57;;;9.10;;
22863;SDS011;11599;49.882;8.680;2023-03-01T19:03:04;21.00;;;8.67;;
22863;SDS011;11599;49.882;8.680;2023-03-01T19:13:27;19.87;;;8.60;;
22863;SDS011;11599;49.882;8.680;2023-03-01T19:23:49;19.83;;;7.63;;
22863;SDS011;11599;49.882;8.680;2023-03-01T19:34:12;22.57;;;8.90;;
22863;SDS011;11599;49.882;8.680;2023-03-01T19:44:33;26.17;;;9.47;;
22863;SDS011;11599;49.882;8.680;2023-03-01T19:55:00;24.23;;;10.73;;
22863;SDS011;11599;49.882;8.680;2023-03-01T20:05:23;26.37;;;10.53;;
22863;SDS011;11599;49.882;8.680;2023-03-01T20:15:46;38.40;;;15.00;;
22863;SDS011;11599;49.882;8.680;2023-03-01T20:26:08;23.60;;;9.60;;
22863;SDS011;11599;49.882;8.680;2023-03-01T20:36:35;31.47;;;11.87;;
22863;SDS011;11599;49.882;8.680;2023-03-01T20:46:58;25.63;;;9.73;;
22863;SDS011;11599;49.882;8.680;2023-03-01T20:57:21;21.33;;;9.43;;
22863;SDS011;11599;49.882;8.680;2023-03-01T21:07:45;20.33;;;8.83;;
22863;SDS011;11599;49.882;8.680;2023-03-01T21:18:07;30.23;;;10.97;;
22863;SDS011;11599;49.882;8.680;2023-03-01T21:28:29;27.47;;;11.10;;
22863;SDS011;11599;49.882;8.680;2023-03-01T21:38:54;22.53;;;8.90;;
22863;SDS011;11599;49.882;8.680;2023-03-01T21:49:15;22.10;;;9.47;;
22863;SDS011;11599;49.882;8.680;2023-03-01T21:59:38;22.80;;;9.73;;
22863;SDS011;11599;49.882;8.680;2023-03-01T22:10:00;27.40;;;10.37;;
22863;SDS011;11599;49.882;8.680;2023-03-01T22:20:23;24.30;;;10.60;;
22863;SDS011;11599;49.882;8.680;2023-03-01T22:30:44;26.63;;;10.67;;
22863;SDS011;11599;49.882;8.680;2023-03-01T22:41:07;24.60;;;10.37;;
22863;SDS011;11599;49.882;8.680;2023-03-01T22:51:29;29.50;;;10.70;;
22863;SDS011;11599;49.882;8.680;2023-03-01T23:01:52;21.33;;;9.23;;
22863;SDS011;11599;49.882;8.680;2023-03-01T23:12:13;24.60;;;10.23;;
22863;SDS011;11599;49.882;8.680;2023-03-01T23:22:36;28.33;;;10.80;;
22863;SDS011;11599;49.882;8.680;2023-03-01T23:32:58;21.30;;;10.00;;
22863;SDS011;11599;49.882;8.680;2023-03-01T23:43:21;27.57;;;10.80;;
22863;SDS011;11599;49.882;8.680;2023-03-01T23:53:43;24.73;;;9.77;;
